ENSO

Details ICAO ENSO (SRP)
Name Stord Sorstokken
Region Norway
Timezone Europe/Oslo (UTC+1.0)
Plans Departing 10
Arriving 23
Stats Elevation 161 ft / 49 m (AMSL)
Location 59.791925° 5.340850°
Runways 1
Magnetic Variation 0.920° E
Sunrise 2017-12-13 08:33:00 UTC / 2017-12-13 09:33:00 Local
Sunset 2017-12-13 14:35:30 UTC / 2017-12-13 15:35:30 Local
Advertisement - Login to hide

Runways

ID Width Length Bearing (true) Bearing (mag) Surface Threshold Offset Overrun Length
14 98 ft / 30 m 4,779 ft / 1,457 m 144.82° 143.90° Asphalt 230 ft / 70 m 0 ft / 0 m
32 98 ft / 30 m 4,779 ft / 1,457 m 324.84° 323.92° Asphalt 230 ft / 70 m 0 ft / 0 m

Approach Navaids

Runway Type Ident Frequency Range Bearing (true) Bearing (mag) Slope Elevation
14 Localiser SRD 110.10 MHz 18 nm / 33 km 144.99° 144.07° - 151 ft / 46 m (AMSL)

Map

Weather


0- 5 10 15 20 25 30 35+ Temperature / ° C

Clouds and Precipitation
Forecast for 2017-12-13 12:00 UTC. Updated 2 hours ago

Ground ~20,000 ft ~40,000 ft Winds

METAR

ENSO 131020Z 11011KT 9999 -RA BKN012 02/01 Q0982

TAF

Not found

Frequencies

Tower 120.20 MHz INFO
Warning: Do not use this data for real-world aviation or navigation. No guarantee of current accuracy is given.